sensor_id;sensor_type;location;lat;lon;timestamp;pressure;altitude;pressure_sealevel;temperature;humidity
72096;BME280;59968;51.084;16.748;2023-09-19T04:03:10;99471.11;;;19.59;81.69
72096;BME280;59968;51.084;16.748;2023-09-19T04:05:46;99475.85;;;19.59;81.82
72096;BME280;59968;51.084;16.748;2023-09-19T04:08:16;99472.19;;;19.56;81.75
72096;BME280;59968;51.084;16.748;2023-09-19T04:10:43;99469.86;;;19.56;81.56
72096;BME280;59968;51.084;16.748;2023-09-19T04:13:11;99470.03;;;19.56;81.65
72096;BME280;59968;51.084;16.748;2023-09-19T04:15:38;99473.02;;;19.55;81.45
72096;BME280;59968;51.084;16.748;2023-09-19T04:18:07;99471.30;;;19.53;81.61
72096;BME280;59968;51.084;16.748;2023-09-19T04:20:35;99481.30;;;19.48;81.58
72096;BME280;59968;51.084;16.748;2023-09-19T04:23:02;99476.31;;;19.45;81.51
72096;BME280;59968;51.084;16.748;2023-09-19T04:25:31;99481.31;;;19.46;81.55
72096;BME280;59968;51.084;16.748;2023-09-19T04:27:58;99484.09;;;19.43;81.66
72096;BME280;59968;51.084;16.748;2023-09-19T04:30:25;99489.79;;;19.40;81.42
72096;BME280;59968;51.084;16.748;2023-09-19T04:32:53;99490.98;;;19.36;81.49
72096;BME280;59968;51.084;16.748;2023-09-19T04:35:20;99495.27;;;19.35;81.40
72096;BME280;59968;51.084;16.748;2023-09-19T04:37:50;99500.38;;;19.34;81.44
72096;BME280;59968;51.084;16.748;2023-09-19T04:40:18;99506.96;;;19.34;81.42
72096;BME280;59968;51.084;16.748;2023-09-19T04:42:54;99507.96;;;19.34;81.34
72096;BME280;59968;51.084;16.748;2023-09-19T04:45:25;99498.44;;;19.34;81.28
72096;BME280;59968;51.084;16.748;2023-09-19T04:47:53;99502.29;;;19.36;81.27
72096;BME280;59968;51.084;16.748;2023-09-19T04:50:21;99501.08;;;19.36;81.27
72096;BME280;59968;51.084;16.748;2023-09-19T04:52:50;99500.35;;;19.36;81.20
72096;BME280;59968;51.084;16.748;2023-09-19T04:55:18;99506.21;;;19.35;81.23
72096;BME280;59968;51.084;16.748;2023-09-19T04:57:47;99507.55;;;19.36;81.18
72096;BME280;59968;51.084;16.748;2023-09-19T05:00:16;99505.35;;;19.37;81.10
72096;BME280;59968;51.084;16.748;2023-09-19T05:03:15;99508.17;;;19.36;80.94
72096;BME280;59968;51.084;16.748;2023-09-19T05:06:55;99510.90;;;19.36;81.18
72096;BME280;59968;51.084;16.748;2023-09-19T05:09:23;99516.65;;;19.37;81.16
72096;BME280;59968;51.084;16.748;2023-09-19T05:11:50;99513.40;;;19.38;81.01
72096;BME280;59968;51.084;16.748;2023-09-19T05:14:18;99517.50;;;19.38;81.05
72096;BME280;59968;51.084;16.748;2023-09-19T05:16:45;99510.70;;;19.39;81.09
72096;BME280;59968;51.084;16.748;2023-09-19T05:19:13;99514.76;;;19.42;81.00
72096;BME280;59968;51.084;16.748;2023-09-19T05:21:41;99519.22;;;19.45;81.18
72096;BME280;59968;51.084;16.748;2023-09-19T05:24:08;99524.11;;;19.47;81.32
72096;BME280;59968;51.084;16.748;2023-09-19T05:26:37;99529.52;;;19.49;81.23
72096;BME280;59968;51.084;16.748;2023-09-19T05:29:04;99530.62;;;19.51;81.27
72096;BME280;59968;51.084;16.748;2023-09-19T05:31:31;99535.89;;;19.52;81.32
72096;BME280;59968;51.084;16.748;2023-09-19T05:33:59;99536.67;;;19.52;81.31
72096;BME280;59968;51.084;16.748;2023-09-19T05:36:27;99539.89;;;19.54;81.33
72096;BME280;59968;51.084;16.748;2023-09-19T05:38:57;99547.50;;;19.56;81.16
72096;BME280;59968;51.084;16.748;2023-09-19T05:41:25;99553.50;;;19.57;81.34
72096;BME280;59968;51.084;16.748;2023-09-19T05:43:52;99552.92;;;19.61;81.39
72096;BME280;59968;51.084;16.748;2023-09-19T05:46:19;99550.29;;;19.64;81.35
72096;BME280;59968;51.084;16.748;2023-09-19T05:48:47;99555.02;;;19.66;81.34
72096;BME280;59968;51.084;16.748;2023-09-19T05:51:14;99560.13;;;19.67;81.53
72096;BME280;59968;51.084;16.748;2023-09-19T05:53:41;99561.89;;;19.73;81.59
72096;BME280;59968;51.084;16.748;2023-09-19T05:56:10;99565.57;;;19.79;81.61
72096;BME280;59968;51.084;16.748;2023-09-19T05:58:37;99568.17;;;19.85;81.69
72096;BME280;59968;51.084;16.748;2023-09-19T06:01:06;99575.54;;;19.91;81.53
72096;BME280;59968;51.084;16.748;2023-09-19T06:03:34;99581.06;;;19.96;81.74
72096;BME280;59968;51.084;16.748;2023-09-19T06:06:02;99582.42;;;20.00;81.45
72096;BME280;59968;51.084;16.748;2023-09-19T06:08:29;99580.94;;;20.03;81.28
72096;BME280;59968;51.084;16.748;2023-09-19T06:10:57;99574.50;;;20.06;81.38
72096;BME280;59968;51.084;16.748;2023-09-19T06:13:27;99573.64;;;20.10;81.33
72096;BME280;59968;51.084;16.748;2023-09-19T06:15:55;99577.16;;;20.14;81.22
72096;BME280;59968;51.084;16.748;2023-09-19T06:18:23;99581.57;;;20.19;80.96
72096;BME280;59968;51.084;16.748;2023-09-19T06:20:53;99586.75;;;20.24;80.87
72096;BME280;59968;51.084;16.748;2023-09-19T06:23:21;99589.93;;;20.29;80.91
72096;BME280;59968;51.084;16.748;2023-09-19T06:25:49;99598.50;;;20.33;80.74
72096;BME280;59968;51.084;16.748;2023-09-19T06:28:16;99599.07;;;20.36;80.11
72096;BME280;59968;51.084;16.748;2023-09-19T06:30:50;99604.32;;;20.41;79.85
72096;BME280;59968;51.084;16.748;2023-09-19T06:33:18;99600.40;;;20.45;79.09
72096;BME280;59968;51.084;16.748;2023-09-19T06:35:48;99599.91;;;20.49;78.66
72096;BME280;59968;51.084;16.748;2023-09-19T06:38:15;99602.02;;;20.51;78.43
72096;BME280;59968;51.084;16.748;2023-09-19T06:40:42;99602.05;;;20.54;78.45
72096;BME280;59968;51.084;16.748;2023-09-19T06:43:10;99605.90;;;20.55;77.95
72096;BME280;59968;51.084;16.748;2023-09-19T06:45:38;99614.08;;;20.54;77.14
72096;BME280;59968;51.084;16.748;2023-09-19T06:48:05;99621.14;;;20.53;76.73
72096;BME280;59968;51.084;16.748;2023-09-19T06:50:33;99621.23;;;20.51;76.37
72096;BME280;59968;51.084;16.748;2023-09-19T06:53:01;99619.98;;;20.51;76.19
72096;BME280;59968;51.084;16.748;2023-09-19T06:55:28;99622.13;;;20.50;76.13
72096;BME280;59968;51.084;16.748;2023-09-19T06:57:59;99625.30;;;20.51;75.86
72096;BME280;59968;51.084;16.748;2023-09-19T07:00:28;99625.82;;;20.51;75.41
72096;BME280;59968;51.084;16.748;2023-09-19T07:03:02;99631.67;;;20.50;75.07
72096;BME280;59968;51.084;16.748;2023-09-19T07:05:32;99632.10;;;20.50;75.07
72096;BME280;59968;51.084;16.748;2023-09-19T07:08:00;99633.30;;;20.53;74.65
72096;BME280;59968;51.084;16.748;2023-09-19T07:10:31;99639.75;;;20.60;74.73
72096;BME280;59968;51.084;16.748;2023-09-19T07:13:03;99642.98;;;20.67;73.89
72096;BME280;59968;51.084;16.748;2023-09-19T07:15:32;99650.70;;;20.74;73.77
72096;BME280;59968;51.084;16.748;2023-09-19T07:18:06;99654.42;;;20.79;73.10
72096;BME280;59968;51.084;16.748;2023-09-19T07:20:38;99661.33;;;20.90;72.65
72096;BME280;59968;51.084;16.748;2023-09-19T07:23:05;99659.61;;;20.97;71.56
72096;BME280;59968;51.084;16.748;2023-09-19T07:25:35;99662.95;;;21.04;71.42
72096;BME280;59968;51.084;16.748;2023-09-19T07:28:03;99671.48;;;21.07;71.51
72096;BME280;59968;51.084;16.748;2023-09-19T07:30:30;99674.54;;;21.10;71.03
72096;BME280;59968;51.084;16.748;2023-09-19T07:32:58;99678.21;;;21.12;71.13
72096;BME280;59968;51.084;16.748;2023-09-19T07:35:25;99675.84;;;21.13;70.84
72096;BME280;59968;51.084;16.748;2023-09-19T07:37:52;99680.48;;;21.15;70.82
72096;BME280;59968;51.084;16.748;2023-09-19T07:40:20;99680.35;;;21.16;70.30
72096;BME280;59968;51.084;16.748;2023-09-19T07:42:51;99682.52;;;21.12;70.09
72096;BME280;59968;51.084;16.748;2023-09-19T07:45:19;99679.09;;;21.07;69.77
72096;BME280;59968;51.084;16.748;2023-09-19T07:47:47;99687.88;;;21.03;70.18
72096;BME280;59968;51.084;16.748;2023-09-19T07:50:19;99680.95;;;20.99;69.67
72096;BME280;59968;51.084;16.748;2023-09-19T07:52:49;99683.82;;;20.96;70.09
72096;BME280;59968;51.084;16.748;2023-09-19T07:55:20;99686.70;;;20.96;69.69
72096;BME280;59968;51.084;16.748;2023-09-19T07:57:52;99687.51;;;20.95;70.16
72096;BME280;59968;51.084;16.748;2023-09-19T08:00:19;99690.50;;;20.94;69.94
72096;BME280;59968;51.084;16.748;2023-09-19T08:02:47;99696.69;;;20.93;69.76
72096;BME280;59968;51.084;16.748;2023-09-19T08:05:28;99694.36;;;20.96;70.18
72096;BME280;59968;51.084;16.748;2023-09-19T08:07:55;99703.52;;;20.99;69.93
72096;BME280;59968;51.084;16.748;2023-09-19T08:10:23;99706.96;;;21.04;69.91
72096;BME280;59968;51.084;16.748;2023-09-19T08:12:54;99708.98;;;21.08;70.17
72096;BME280;59968;51.084;16.748;2023-09-19T08:15:24;99711.36;;;21.16;70.66
72096;BME280;59968;51.084;16.748;2023-09-19T08:17:51;99714.38;;;21.24;69.80
72096;BME280;59968;51.084;16.748;2023-09-19T08:20:20;99717.53;;;21.27;69.84
72096;BME280;59968;51.084;16.748;2023-09-19T08:22:50;99721.60;;;21.34;69.75
72096;BME280;59968;51.084;16.748;2023-09-19T08:25:25;99723.41;;;21.39;69.50
72096;BME280;59968;51.084;16.748;2023-09-19T08:27:56;99726.79;;;21.42;69.16
72096;BME280;59968;51.084;16.748;2023-09-19T08:30:24;99728.46;;;21.44;68.30
72096;BME280;59968;51.084;16.748;2023-09-19T08:32:57;99726.31;;;21.50;68.43
72096;BME280;59968;51.084;16.748;2023-09-19T08:35:28;99726.73;;;21.56;68.27
72096;BME280;59968;51.084;16.748;2023-09-19T08:37:55;99730.59;;;21.63;68.09
72096;BME280;59968;51.084;16.748;2023-09-19T08:40:23;99735.30;;;21.69;67.99
72096;BME280;59968;51.084;16.748;2023-09-19T08:42:53;99737.42;;;21.75;67.57
72096;BME280;59968;51.084;16.748;2023-09-19T08:45:22;99737.81;;;21.81;67.68
72096;BME280;59968;51.084;16.748;2023-09-19T08:48:12;99736.75;;;21.81;67.56
72096;BME280;59968;51.084;16.748;2023-09-19T08:50:51;99746.10;;;21.90;66.90
72096;BME280;59968;51.084;16.748;2023-09-19T08:53:47;99747.19;;;21.93;66.36
72096;BME280;59968;51.084;16.748;2023-09-19T08:56:18;99745.64;;;21.96;65.96
72096;BME280;59968;51.084;16.748;2023-09-19T09:01:27;99752.63;;;22.11;66.08
72096;BME280;59968;51.084;16.748;2023-09-19T09:03:56;99748.27;;;22.21;65.43
72096;BME280;59968;51.084;16.748;2023-09-19T09:06:25;99754.20;;;22.31;65.99
72096;BME280;59968;51.084;16.748;2023-09-19T09:08:52;99756.02;;;22.38;65.58
72096;BME280;59968;51.084;16.748;2023-09-19T09:11:21;99765.59;;;22.40;64.57
72096;BME280;59968;51.084;16.748;2023-09-19T09:13:52;99766.14;;;22.36;64.08
72096;BME280;59968;51.084;16.748;2023-09-19T09:16:20;99768.33;;;22.34;64.07
72096;BME280;59968;51.084;16.748;2023-09-19T09:18:49;99770.42;;;22.30;63.88
72096;BME280;59968;51.084;16.748;2023-09-19T09:21:22;99764.46;;;22.19;63.86
72096;BME280;59968;51.084;16.748;2023-09-19T09:23:51;99762.91;;;22.14;64.29
72096;BME280;59968;51.084;16.748;2023-09-19T09:29:07;99776.11;;;22.08;64.52
72096;BME280;59968;51.084;16.748;2023-09-19T09:31:34;99776.17;;;22.09;64.95
72096;BME280;59968;51.084;16.748;2023-09-19T09:34:02;99778.55;;;22.14;64.64
72096;BME280;59968;51.084;16.748;2023-09-19T09:36:35;99778.86;;;22.21;64.14
72096;BME280;59968;51.084;16.748;2023-09-19T09:39:03;99777.91;;;22.26;64.09
72096;BME280;59968;51.084;16.748;2023-09-19T09:41:44;99784.36;;;22.31;63.99
72096;BME280;59968;51.084;16.748;2023-09-19T09:44:19;99789.22;;;22.32;63.51
72096;BME280;59968;51.084;16.748;2023-09-19T09:46:47;99786.42;;;22.38;63.95
72096;BME280;59968;51.084;16.748;2023-09-19T09:49:27;99785.35;;;22.16;64.50
72096;BME280;59968;51.084;16.748;2023-09-19T09:54:35;99795.88;;;22.21;64.53
72096;BME280;59968;51.084;16.748;2023-09-19T09:57:08;99798.33;;;22.30;63.80
72096;BME280;59968;51.084;16.748;2023-09-19T10:02:21;99801.98;;;22.46;62.86
72096;BME280;59968;51.084;16.748;2023-09-19T10:04:53;99808.83;;;22.50;61.96
72096;BME280;59968;51.084;16.748;2023-09-19T10:07:30;99810.04;;;22.55;62.06
72096;BME280;59968;51.084;16.748;2023-09-19T10:10:11;99819.18;;;22.56;60.91
72096;BME280;59968;51.084;16.748;2023-09-19T10:12:48;99818.14;;;22.54;60.25
72096;BME280;59968;51.084;16.748;2023-09-19T10:15:18;99824.56;;;22.51;60.06
72096;BME280;59968;51.084;16.748;2023-09-19T10:17:50;99819.13;;;22.50;59.88
72096;BME280;59968;51.084;16.748;2023-09-19T10:20:21;99824.23;;;22.47;60.12
72096;BME280;59968;51.084;16.748;2023-09-19T10:22:53;99825.95;;;22.43;59.78
72096;BME280;59968;51.084;16.748;2023-09-19T10:25:31;99824.95;;;22.42;60.00
72096;BME280;59968;51.084;16.748;2023-09-19T10:28:02;99828.75;;;22.44;60.35
72096;BME280;59968;51.084;16.748;2023-09-19T10:30:32;99829.17;;;22.56;61.20
72096;BME280;59968;51.084;16.748;2023-09-19T10:33:03;99825.33;;;22.73;61.21
72096;BME280;59968;51.084;16.748;2023-09-19T10:35:33;99833.31;;;22.84;61.02
72096;BME280;59968;51.084;16.748;2023-09-19T10:38:01;99834.29;;;22.90;59.15
72096;BME280;59968;51.084;16.748;2023-09-19T10:40:30;99834.55;;;22.92;59.43
72096;BME280;59968;51.084;16.748;2023-09-19T10:43:04;99830.98;;;22.98;59.71
72096;BME280;59968;51.084;16.748;2023-09-19T10:45:35;99834.82;;;23.06;59.47
72096;BME280;59968;51.084;16.748;2023-09-19T10:48:06;99835.14;;;23.10;58.71
72096;BME280;59968;51.084;16.748;2023-09-19T10:51:10;99835.19;;;23.20;57.96
72096;BME280;59968;51.084;16.748;2023-09-19T10:53:58;99829.70;;;23.27;57.42
72096;BME280;59968;51.084;16.748;2023-09-19T10:56:31;99833.52;;;23.34;56.16
72096;BME280;59968;51.084;16.748;2023-09-19T10:59:13;99836.11;;;23.38;55.02
72096;BME280;59968;51.084;16.748;2023-09-19T11:01:57;99837.71;;;23.36;54.05
72096;BME280;59968;51.084;16.748;2023-09-19T11:04:28;99831.85;;;23.28;54.56
72096;BME280;59968;51.084;16.748;2023-09-19T11:09:47;99832.98;;;23.33;54.57
72096;BME280;59968;51.084;16.748;2023-09-19T11:14:58;99840.91;;;23.55;53.14
72096;BME280;59968;51.084;16.748;2023-09-19T11:17:37;99834.77;;;23.64;53.43
72096;BME280;59968;51.084;16.748;2023-09-19T11:30:47;99858.05;;;23.53;50.58
72096;BME280;59968;51.084;16.748;2023-09-19T11:33:29;99848.23;;;23.37;50.16
72096;BME280;59968;51.084;16.748;2023-09-19T11:36:08;99837.65;;;23.37;50.55
72096;BME280;59968;51.084;16.748;2023-09-19T11:46:54;99841.59;;;23.64;50.74
72096;BME280;59968;51.084;16.748;2023-09-19T11:49:28;99838.00;;;23.82;49.82
72096;BME280;59968;51.084;16.748;2023-09-19T11:51:57;99829.70;;;23.92;49.92
72096;BME280;59968;51.084;16.748;2023-09-19T11:54:27;99830.17;;;24.02;50.37
72096;BME280;59968;51.084;16.748;2023-09-19T11:56:59;99835.63;;;24.16;49.52
72096;BME280;59968;51.084;16.748;2023-09-19T11:59:29;99836.21;;;24.28;49.53
72096;BME280;59968;51.084;16.748;2023-09-19T12:01:58;99835.08;;;24.36;48.40
72096;BME280;59968;51.084;16.748;2023-09-19T12:04:41;99838.38;;;24.41;47.95
72096;BME280;59968;51.084;16.748;2023-09-19T12:07:13;99835.10;;;24.47;47.61
72096;BME280;59968;51.084;16.748;2023-09-19T12:09:49;99835.20;;;24.51;46.91
72096;BME280;59968;51.084;16.748;2023-09-19T12:12:22;99835.05;;;24.53;46.19
72096;BME280;59968;51.084;16.748;2023-09-19T12:14:50;99838.02;;;24.50;44.25
72096;BME280;59968;51.084;16.748;2023-09-19T12:17:18;99835.39;;;24.45;44.57
72096;BME280;59968;51.084;16.748;2023-09-19T12:19:52;99843.32;;;24.37;43.67
72096;BME280;59968;51.084;16.748;2023-09-19T12:22:20;99839.27;;;24.28;44.54
72096;BME280;59968;51.084;16.748;2023-09-19T12:24:48;99840.15;;;24.27;45.41
72096;BME280;59968;51.084;16.748;2023-09-19T12:27:15;99850.87;;;24.29;44.87
72096;BME280;59968;51.084;16.748;2023-09-19T12:29:48;99841.97;;;24.29;45.05
72096;BME280;59968;51.084;16.748;2023-09-19T12:32:16;99841.58;;;24.27;45.48
72096;BME280;59968;51.084;16.748;2023-09-19T12:34:51;99836.75;;;24.21;46.23
72096;BME280;59968;51.084;16.748;2023-09-19T12:37:19;99834.42;;;24.21;47.30
72096;BME280;59968;51.084;16.748;2023-09-19T12:39:52;99831.20;;;24.26;47.29
72096;BME280;59968;51.084;16.748;2023-09-19T12:42:25;99826.08;;;24.35;47.15
72096;BME280;59968;51.084;16.748;2023-09-19T12:44:56;99824.25;;;24.39;45.89
72096;BME280;59968;51.084;16.748;2023-09-19T12:47:24;99821.13;;;24.39;46.48
72096;BME280;59968;51.084;16.748;2023-09-19T12:52:48;99823.98;;;24.43;46.55
72096;BME280;59968;51.084;16.748;2023-09-19T12:55:22;99820.97;;;24.49;46.61
72096;BME280;59968;51.084;16.748;2023-09-19T13:00:35;99816.65;;;24.50;46.58
72096;BME280;59968;51.084;16.748;2023-09-19T13:06:04;99810.35;;;24.53;46.46
72096;BME280;59968;51.084;16.748;2023-09-19T13:08:39;99809.08;;;24.58;46.42
72096;BME280;59968;51.084;16.748;2023-09-19T13:11:13;99807.79;;;24.58;46.61
72096;BME280;59968;51.084;16.748;2023-09-19T13:13:47;99806.16;;;24.55;46.34
72096;BME280;59968;51.084;16.748;2023-09-19T13:16:22;99808.92;;;24.53;46.20
72096;BME280;59968;51.084;16.748;2023-09-19T13:18:53;99805.52;;;24.50;46.31
72096;BME280;59968;51.084;16.748;2023-09-19T13:21:32;99806.06;;;24.49;46.53
72096;BME280;59968;51.084;16.748;2023-09-19T13:24:24;99804.80;;;24.45;45.63
72096;BME280;59968;51.084;16.748;2023-09-19T13:26:55;99803.44;;;24.41;46.39
72096;BME280;59968;51.084;16.748;2023-09-19T13:29:23;99802.05;;;24.45;46.20
72096;BME280;59968;51.084;16.748;2023-09-19T13:31:52;99800.02;;;24.46;45.88
72096;BME280;59968;51.084;16.748;2023-09-19T13:34:21;99803.49;;;24.48;45.47
72096;BME280;59968;51.084;16.748;2023-09-19T13:36:49;99797.29;;;24.48;45.23
72096;BME280;59968;51.084;16.748;2023-09-19T13:39:18;99796.51;;;24.50;45.42
72096;BME280;59968;51.084;16.748;2023-09-19T13:41:49;99797.52;;;24.56;45.74
72096;BME280;59968;51.084;16.748;2023-09-19T13:44:16;99790.31;;;24.52;44.96
72096;BME280;59968;51.084;16.748;2023-09-19T13:46:45;99800.73;;;24.54;45.25
72096;BME280;59968;51.084;16.748;2023-09-19T13:49:13;99793.21;;;24.53;45.84
72096;BME280;59968;51.084;16.748;2023-09-19T13:51:40;99789.92;;;24.56;46.11
72096;BME280;59968;51.084;16.748;2023-09-19T13:54:13;99784.95;;;24.52;45.21
72096;BME280;59968;51.084;16.748;2023-09-19T13:56:41;99791.55;;;24.60;45.75
72096;BME280;59968;51.084;16.748;2023-09-19T13:59:12;99796.27;;;24.60;45.21
72096;BME280;59968;51.084;16.748;2023-09-19T14:01:40;99793.83;;;24.55;45.15
72096;BME280;59968;51.084;16.748;2023-09-19T14:04:07;99796.04;;;24.52;45.61
72096;BME280;59968;51.084;16.748;2023-09-19T14:06:34;99792.50;;;24.49;46.10
72096;BME280;59968;51.084;16.748;2023-09-19T14:09:02;99794.80;;;24.48;46.25
72096;BME280;59968;51.084;16.748;2023-09-19T14:11:31;99787.01;;;24.41;45.65
72096;BME280;59968;51.084;16.748;2023-09-19T14:13:58;99789.74;;;24.39;46.23
72096;BME280;59968;51.084;16.748;2023-09-19T14:16:26;99785.56;;;24.39;45.79
72096;BME280;59968;51.084;16.748;2023-09-19T14:18:57;99785.92;;;24.33;45.89
72096;BME280;59968;51.084;16.748;2023-09-19T14:21:25;99787.05;;;24.29;46.53
72096;BME280;59968;51.084;16.748;2023-09-19T14:23:54;99796.00;;;24.24;46.44
72096;BME280;59968;51.084;16.748;2023-09-19T14:26:23;99784.19;;;24.18;46.90
72096;BME280;59968;51.084;16.748;2023-09-19T14:28:51;99789.31;;;24.12;46.47
72096;BME280;59968;51.084;16.748;2023-09-19T14:31:19;99784.15;;;24.05;46.66
72096;BME280;59968;51.084;16.748;2023-09-19T14:33:56;99785.02;;;23.99;47.36
72096;BME280;59968;51.084;16.748;2023-09-19T14:36:25;99783.01;;;23.97;47.23
72096;BME280;59968;51.084;16.748;2023-09-19T14:38:53;99780.17;;;23.95;47.28
72096;BME280;59968;51.084;16.748;2023-09-19T14:41:21;99783.11;;;23.97;47.11
72096;BME280;59968;51.084;16.748;2023-09-19T14:43:50;99787.17;;;23.98;47.19
72096;BME280;59968;51.084;16.748;2023-09-19T14:46:17;99785.77;;;24.03;47.10
72096;BME280;59968;51.084;16.748;2023-09-19T14:48:46;99786.70;;;24.04;47.32
72096;BME280;59968;51.084;16.748;2023-09-19T14:51:16;99791.00;;;24.04;47.40
72096;BME280;59968;51.084;16.748;2023-09-19T14:53:44;99795.20;;;24.03;47.18
72096;BME280;59968;51.084;16.748;2023-09-19T14:56:11;99789.74;;;24.00;47.61
72096;BME280;59968;51.084;16.748;2023-09-19T14:58:40;99793.07;;;24.00;47.32
72096;BME280;59968;51.084;16.748;2023-09-19T15:01:10;99794.52;;;24.00;47.76
72096;BME280;59968;51.084;16.748;2023-09-19T15:03:40;99795.45;;;24.00;48.06
72096;BME280;59968;51.084;16.748;2023-09-19T15:06:10;99792.73;;;24.02;47.95
72096;BME280;59968;51.084;16.748;2023-09-19T15:08:42;99793.86;;;24.00;47.67
72096;BME280;59968;51.084;16.748;2023-09-19T15:11:15;99799.03;;;23.95;47.68
72096;BME280;59968;51.084;16.748;2023-09-19T15:13:48;99794.50;;;23.90;47.83
72096;BME280;59968;51.084;16.748;2023-09-19T15:16:17;99798.50;;;23.88;47.65
72096;BME280;59968;51.084;16.748;2023-09-19T15:18:46;99799.86;;;23.86;48.29
72096;BME280;59968;51.084;16.748;2023-09-19T15:21:17;99797.80;;;23.86;48.49
72096;BME280;59968;51.084;16.748;2023-09-19T15:23:45;99800.88;;;23.88;48.90
72096;BME280;59968;51.084;16.748;2023-09-19T15:26:14;99801.86;;;23.91;48.79
72096;BME280;59968;51.084;16.748;2023-09-19T15:28:47;99799.80;;;23.93;48.20
72096;BME280;59968;51.084;16.748;2023-09-19T15:31:15;99799.73;;;23.94;48.66
72096;BME280;59968;51.084;16.748;2023-09-19T15:33:43;99797.27;;;23.96;48.87
72096;BME280;59968;51.084;16.748;2023-09-19T15:36:15;99798.26;;;23.98;48.34
72096;BME280;59968;51.084;16.748;2023-09-19T15:39:06;99801.45;;;23.99;48.62
72096;BME280;59968;51.084;16.748;2023-09-19T15:41:37;99804.17;;;23.95;48.43
72096;BME280;59968;51.084;16.748;2023-09-19T15:44:14;99803.90;;;23.89;48.71
72096;BME280;59968;51.084;16.748;2023-09-19T15:46:43;99803.98;;;23.87;48.90
72096;BME280;59968;51.084;16.748;2023-09-19T15:49:12;99802.55;;;23.83;48.64
72096;BME280;59968;51.084;16.748;2023-09-19T15:51:40;99802.23;;;23.75;48.37
72096;BME280;59968;51.084;16.748;2023-09-19T15:54:13;99802.50;;;23.68;48.68
72096;BME280;59968;51.084;16.748;2023-09-19T15:56:45;99806.73;;;23.62;49.05
72096;BME280;59968;51.084;16.748;2023-09-19T15:59:12;99811.80;;;23.57;49.27
72096;BME280;59968;51.084;16.748;2023-09-19T16:01:43;99810.94;;;23.52;48.95
72096;BME280;59968;51.084;16.748;2023-09-19T16:04:12;99813.48;;;23.44;49.49
72096;BME280;59968;51.084;16.748;2023-09-19T16:06:40;99813.36;;;23.36;49.89
72096;BME280;59968;51.084;16.748;2023-09-19T16:09:08;99817.77;;;23.30;49.96
72096;BME280;59968;51.084;16.748;2023-09-19T16:11:37;99817.02;;;23.22;50.14
72096;BME280;59968;51.084;16.748;2023-09-19T16:14:04;99823.27;;;23.16;50.51
72096;BME280;59968;51.084;16.748;2023-09-19T16:16:33;99823.64;;;23.07;50.82
72096;BME280;59968;51.084;16.748;2023-09-19T16:19:03;99823.85;;;22.98;50.70
72096;BME280;59968;51.084;16.748;2023-09-19T16:21:33;99822.52;;;22.90;51.16
72096;BME280;59968;51.084;16.748;2023-09-19T16:24:03;99823.77;;;22.82;51.16
72096;BME280;59968;51.084;16.748;2023-09-19T16:26:32;99827.27;;;22.76;51.69
72096;BME280;59968;51.084;16.748;2023-09-19T16:28:59;99826.52;;;22.71;51.63
72096;BME280;59968;51.084;16.748;2023-09-19T16:31:30;99829.89;;;22.66;51.92
72096;BME280;59968;51.084;16.748;2023-09-19T16:34:02;99832.92;;;22.62;51.79
72096;BME280;59968;51.084;16.748;2023-09-19T16:36:29;99835.98;;;22.57;51.90
72096;BME280;59968;51.084;16.748;2023-09-19T16:38:59;99835.17;;;22.52;52.27
72096;BME280;59968;51.084;16.748;2023-09-19T16:41:26;99832.38;;;22.46;52.35
72096;BME280;59968;51.084;16.748;2023-09-19T16:43:53;99840.77;;;22.40;52.75
72096;BME280;59968;51.084;16.748;2023-09-19T16:46:20;99838.55;;;22.34;52.77
72096;BME280;59968;51.084;16.748;2023-09-19T16:48:48;99840.58;;;22.27;53.00
72096;BME280;59968;51.084;16.748;2023-09-19T16:51:21;99844.37;;;22.21;53.05
72096;BME280;59968;51.084;16.748;2023-09-19T16:53:48;99841.21;;;22.12;53.28
72096;BME280;59968;51.084;16.748;2023-09-19T16:56:16;99844.05;;;22.05;53.54
72096;BME280;59968;51.084;16.748;2023-09-19T16:58:46;99845.50;;;21.95;53.58
72096;BME280;59968;51.084;16.748;2023-09-19T17:01:15;99853.00;;;21.85;53.80
72096;BME280;59968;51.084;16.748;2023-09-19T17:03:43;99854.86;;;21.77;53.84
72096;BME280;59968;51.084;16.748;2023-09-19T17:06:12;99857.86;;;21.70;54.06
72096;BME280;59968;51.084;16.748;2023-09-19T17:08:43;99858.59;;;21.64;54.45
72096;BME280;59968;51.084;16.748;2023-09-19T17:11:13;99858.52;;;21.57;54.31
72096;BME280;59968;51.084;16.748;2023-09-19T17:13:44;99858.60;;;21.51;54.46
72096;BME280;59968;51.084;16.748;2023-09-19T17:16:18;99858.73;;;21.46;54.76
72096;BME280;59968;51.084;16.748;2023-09-19T17:18:56;99860.15;;;21.43;54.88
72096;BME280;59968;51.084;16.748;2023-09-19T17:21:25;99859.02;;;21.39;55.50
72096;BME280;59968;51.084;16.748;2023-09-19T17:23:54;99865.88;;;21.39;55.80
72096;BME280;59968;51.084;16.748;2023-09-19T17:26:22;99869.36;;;21.37;55.89
72096;BME280;59968;51.084;16.748;2023-09-19T17:28:53;99870.91;;;21.33;56.28
72096;BME280;59968;51.084;16.748;2023-09-19T17:31:23;99875.83;;;21.28;56.14
72096;BME280;59968;51.084;16.748;2023-09-19T17:33:53;99877.91;;;21.21;56.44
72096;BME280;59968;51.084;16.748;2023-09-19T17:36:26;99878.19;;;21.13;56.50
72096;BME280;59968;51.084;16.748;2023-09-19T17:39:00;99879.89;;;21.08;56.51
72096;BME280;59968;51.084;16.748;2023-09-19T17:41:28;99880.16;;;21.01;56.66
72096;BME280;59968;51.084;16.748;2023-09-19T17:43:57;99882.33;;;20.93;56.63
72096;BME280;59968;51.084;16.748;2023-09-19T17:46:25;99888.40;;;20.86;56.85
72096;BME280;59968;51.084;16.748;2023-09-19T17:48:58;99892.46;;;20.81;57.42
72096;BME280;59968;51.084;16.748;2023-09-19T17:51:26;99890.56;;;20.78;57.47
72096;BME280;59968;51.084;16.748;2023-09-19T17:53:54;99896.06;;;20.75;57.88